createdAt,value
2018-10-17T00:02:01.315Z,14.43
2018-10-17T00:04:30.427Z,12.13
2018-10-17T00:07:00.112Z,12.20
2018-10-17T00:09:29.185Z,12.93
2018-10-17T00:11:58.262Z,14.90
2018-10-17T00:14:27.355Z,14.37
2018-10-17T00:16:56.404Z,15.60
2018-10-17T00:19:25.434Z,13.50
2018-10-17T00:21:54.434Z,11.80
2018-10-17T00:24:26.057Z,12.20
2018-10-17T00:26:55.188Z,13.13
2018-10-17T00:29:24.211Z,15.50
2018-10-17T00:31:53.308Z,12.77
2018-10-17T00:34:22.385Z,13.90
2018-10-17T00:36:51.378Z,17.03
2018-10-17T00:39:20.567Z,16.57
2018-10-17T00:41:51.250Z,17.30
2018-10-17T00:44:20.311Z,15.07
2018-10-17T00:46:49.591Z,13.57
2018-10-17T00:49:18.594Z,17.47
2018-10-17T00:51:47.839Z,16.60
2018-10-17T00:54:16.896Z,16.93
2018-10-17T00:56:45.965Z,15.77
2018-10-17T00:59:22.497Z,15.17
2018-10-17T01:01:51.830Z,14.20
2018-10-17T01:04:20.841Z,13.60
2018-10-17T01:06:49.892Z,15.43
2018-10-17T01:09:18.987Z,15.30
2018-10-17T01:11:49.070Z,13.33
2018-10-17T01:14:18.093Z,14.40
2018-10-17T01:16:47.251Z,13.40
2018-10-17T01:19:16.433Z,14.93
2018-10-17T01:21:45.498Z,15.10
2018-10-17T01:24:14.544Z,17.07
2018-10-17T01:26:43.599Z,15.50
2018-10-17T01:29:12.863Z,13.90
2018-10-17T01:31:41.790Z,16.47
2018-10-17T01:34:11.191Z,16.53
2018-10-17T01:36:40.218Z,15.50
2018-10-17T01:39:10.141Z,16.37
2018-10-17T01:41:39.178Z,15.80
2018-10-17T01:44:09.615Z,14.50
2018-10-17T01:46:38.645Z,16.30
2018-10-17T01:49:07.750Z,17.83
2018-10-17T01:51:37.861Z,15.37
2018-10-17T01:54:06.859Z,15.17
2018-10-17T01:56:35.982Z,14.87
2018-10-17T01:59:05.649Z,14.97
2018-10-17T02:01:34.644Z,15.53
2018-10-17T02:04:03.822Z,13.77
2018-10-17T02:06:32.798Z,13.93
2018-10-17T02:09:01.945Z,15.13
2018-10-17T02:11:31.074Z,14.63
2018-10-17T02:14:00.283Z,14.53
2018-10-17T02:16:29.374Z,13.43
2018-10-17T02:19:00.058Z,12.60
2018-10-17T02:21:29.253Z,14.83
2018-10-17T02:23:58.329Z,16.90
2018-10-17T02:26:27.393Z,16.60
2018-10-17T02:28:56.488Z,16.70
2018-10-17T02:31:27.694Z,13.47
2018-10-17T02:33:56.737Z,14.43
2018-10-17T02:36:25.840Z,14.77
2018-10-17T02:38:54.968Z,19.07
2018-10-17T02:41:24.272Z,17.33
2018-10-17T02:43:53.432Z,16.73
2018-10-17T02:46:22.538Z,16.27
2018-10-17T02:48:53.543Z,14.83
2018-10-17T02:51:22.560Z,12.60
2018-10-17T02:53:51.596Z,15.00
2018-10-17T02:56:20.635Z,15.27
2018-10-17T02:58:49.822Z,15.23
2018-10-17T03:01:19.026Z,16.90
2018-10-17T03:03:48.168Z,15.77
2018-10-17T03:06:17.232Z,16.70
2018-10-17T03:08:46.334Z,14.93
2018-10-17T03:11:19.098Z,16.00
2018-10-17T03:13:48.154Z,14.37
2018-10-17T03:16:17.297Z,14.67
2018-10-17T03:18:46.397Z,13.53
2018-10-17T03:21:15.423Z,11.43
2018-10-17T03:23:44.472Z,12.20
2018-10-17T03:26:14.448Z,12.47
2018-10-17T03:28:44.317Z,14.17
2018-10-17T03:31:13.428Z,13.77
2018-10-17T03:33:42.971Z,14.37
2018-10-17T03:36:12.092Z,16.90
2018-10-17T03:38:41.544Z,15.80
2018-10-17T03:41:10.553Z,14.70
2018-10-17T03:43:39.517Z,18.40
2018-10-17T03:46:09.819Z,16.20
2018-10-17T03:48:38.831Z,15.67
2018-10-17T03:51:07.891Z,13.73
2018-10-17T03:53:36.921Z,13.43
2018-10-17T03:56:05.992Z,12.57
2018-10-17T03:58:36.477Z,15.77
2018-10-17T04:01:06.010Z,16.43
2018-10-17T04:03:35.221Z,15.70
2018-10-17T04:06:04.415Z,14.70
2018-10-17T04:08:33.823Z,15.37
2018-10-17T04:11:05.821Z,15.33
2018-10-17T04:13:34.682Z,15.53
2018-10-17T04:16:03.706Z,14.97
2018-10-17T04:18:32.807Z,13.47
2018-10-17T04:21:02.086Z,12.80
2018-10-17T04:23:31.763Z,13.77
2018-10-17T04:26:01.035Z,14.80
2018-10-17T04:28:30.218Z,12.97
2018-10-17T04:30:59.370Z,11.73
2018-10-17T04:33:28.457Z,13.47
2018-10-17T04:35:57.482Z,11.73
2018-10-17T04:38:26.521Z,13.47
2018-10-17T04:40:55.390Z,11.20
2018-10-17T04:43:24.627Z,11.03
2018-10-17T04:45:54.968Z,11.23
2018-10-17T04:48:24.050Z,11.83
2018-10-17T04:50:53.085Z,13.40
2018-10-17T04:53:22.258Z,14.23
2018-10-17T04:55:51.310Z,12.63
2018-10-17T04:58:20.437Z,12.13
2018-10-17T05:00:49.678Z,12.20
2018-10-17T05:03:18.910Z,13.40
2018-10-17T05:05:48.062Z,12.33
2018-10-17T05:08:18.382Z,13.50
2018-10-17T05:10:47.942Z,14.90
2018-10-17T05:13:17.872Z,15.03
2018-10-17T05:15:47.187Z,12.80
2018-10-17T05:18:16.213Z,15.20
2018-10-17T05:20:45.439Z,16.73
2018-10-17T05:23:14.654Z,13.90
2018-10-17T05:25:43.724Z,14.17
2018-10-17T05:28:12.833Z,13.63
2018-10-17T05:30:41.948Z,15.60
2018-10-17T05:33:11.040Z,11.97
2018-10-17T05:35:41.781Z,13.47
2018-10-17T05:38:11.170Z,13.10
2018-10-17T05:40:40.439Z,13.60
2018-10-17T05:43:09.622Z,13.10
2018-10-17T05:45:38.665Z,11.33
2018-10-17T05:48:07.737Z,10.83
2018-10-17T05:50:36.804Z,12.17
2018-10-17T05:53:06.564Z,12.90
2018-10-17T05:55:35.570Z,18.03
2018-10-17T05:58:04.951Z,19.10
2018-10-17T06:00:34.188Z,16.00
2018-10-17T06:03:03.664Z,17.70
2018-10-17T06:05:32.803Z,16.17
2018-10-17T06:08:01.979Z,17.10
2018-10-17T06:10:31.240Z,15.13
2018-10-17T06:13:00.520Z,14.53
2018-10-17T06:15:29.602Z,14.77
2018-10-17T06:17:59.055Z,12.83
2018-10-17T06:20:30.695Z,13.10
2018-10-17T06:23:00.180Z,11.70
2018-10-17T06:25:29.301Z,9.33
2018-10-17T06:27:58.341Z,8.50
2018-10-17T06:30:27.465Z,8.00
2018-10-17T06:32:56.585Z,7.70
2018-10-17T06:35:25.822Z,7.83
2018-10-17T06:37:54.862Z,6.77
2018-10-17T06:40:24.281Z,6.47
2018-10-17T06:42:54.077Z,6.67
2018-10-17T06:45:23.400Z,6.13
2018-10-17T06:47:53.082Z,6.50
2018-10-17T06:50:22.115Z,6.27
2018-10-17T06:52:51.302Z,6.30
2018-10-17T06:55:20.367Z,5.97
2018-10-17T06:58:00.005Z,6.00
2018-10-17T07:00:29.147Z,6.90
2018-10-17T07:02:58.338Z,5.80
2018-10-17T07:05:27.527Z,5.90
2018-10-17T07:07:56.656Z,6.27
2018-10-17T07:10:25.835Z,5.47
2018-10-17T07:12:55.136Z,6.27
2018-10-17T07:15:24.723Z,5.72
2018-10-17T07:17:53.781Z,5.58
2018-10-17T07:20:23.609Z,5.62
2018-10-17T07:22:54.479Z,6.90
2018-10-17T07:25:24.152Z,5.40
2018-10-17T07:27:53.644Z,5.90
2018-10-17T07:30:22.762Z,5.03
2018-10-17T07:32:54.371Z,5.40
2018-10-17T07:35:28.192Z,5.17
2018-10-17T07:37:57.691Z,4.95
2018-10-17T07:40:29.358Z,4.87
2018-10-17T07:42:58.465Z,5.53
2018-10-17T07:45:27.670Z,4.80
2018-10-17T07:47:56.837Z,5.25
2018-10-17T07:50:26.149Z,5.42
2018-10-17T07:52:55.180Z,5.17
2018-10-17T07:55:24.305Z,5.05
2018-10-17T07:57:53.558Z,5.40
2018-10-17T08:00:22.807Z,5.67
2018-10-17T08:02:52.941Z,6.70
2018-10-17T08:05:22.064Z,5.55
2018-10-17T08:07:51.397Z,5.60
2018-10-17T08:10:20.448Z,5.90
2018-10-17T08:12:49.554Z,5.92
2018-10-17T08:15:18.664Z,6.10
2018-10-17T08:17:47.857Z,5.05
2018-10-17T08:20:17.654Z,6.70
2018-10-17T08:22:46.723Z,6.85
2018-10-17T08:25:16.027Z,6.42
2018-10-17T08:27:45.124Z,5.83
2018-10-17T08:30:14.433Z,6.55
2018-10-17T08:32:45.056Z,7.67
2018-10-17T08:35:14.336Z,8.00
2018-10-17T08:37:44.634Z,6.10
2018-10-17T08:40:13.315Z,6.00
2018-10-17T08:42:42.424Z,6.53
2018-10-17T08:45:11.454Z,6.17
2018-10-17T08:47:40.774Z,5.50
2018-10-17T08:50:10.114Z,6.20
2018-10-17T08:52:40.196Z,5.78
2018-10-17T08:55:09.391Z,5.90
2018-10-17T08:57:38.637Z,6.35
2018-10-17T09:00:08.655Z,6.60
2018-10-17T09:02:37.719Z,7.00
2018-10-17T09:05:06.854Z,6.92
2018-10-17T09:07:36.015Z,6.62
2018-10-17T09:10:05.941Z,7.20
2018-10-17T09:12:35.025Z,7.17
2018-10-17T09:15:04.802Z,6.22
2018-10-17T09:17:33.948Z,6.00
2018-10-17T09:20:04.791Z,6.30
2018-10-17T09:22:34.536Z,6.50
2018-10-17T09:25:04.347Z,7.35
2018-10-17T09:27:33.715Z,5.72
2018-10-17T09:30:03.944Z,8.08
2018-10-17T09:32:33.214Z,7.65
2018-10-17T09:35:04.484Z,7.15
2018-10-17T09:37:34.460Z,7.35
2018-10-17T09:40:04.150Z,8.48
2018-10-17T09:42:33.881Z,8.65
2018-10-17T09:45:03.228Z,6.90
2018-10-17T09:47:32.375Z,8.38
2018-10-17T09:50:01.633Z,8.58
2018-10-17T09:52:30.900Z,7.17
2018-10-17T09:55:00.127Z,10.10
2018-10-17T09:57:29.765Z,10.85
2018-10-17T09:59:58.998Z,8.60
2018-10-17T10:02:31.726Z,10.63
2018-10-17T10:05:00.949Z,8.35
2018-10-17T10:07:30.114Z,10.85
2018-10-17T10:09:59.304Z,6.97
2018-10-17T10:12:28.450Z,8.65
2018-10-17T10:14:59.065Z,10.00
2018-10-17T10:17:28.392Z,10.70
2018-10-17T10:19:58.181Z,10.32
2018-10-17T10:22:27.249Z,9.00
2018-10-17T10:24:56.517Z,7.87
2018-10-17T10:27:25.596Z,6.35
2018-10-17T10:29:54.750Z,7.50
2018-10-17T10:32:23.802Z,9.83
2018-10-17T10:34:52.853Z,9.03
2018-10-17T10:37:21.982Z,10.08
2018-10-17T10:39:51.128Z,8.25
2018-10-17T10:42:21.431Z,8.35
2018-10-17T10:44:50.763Z,8.78
2018-10-17T10:47:20.714Z,7.95
2018-10-17T10:49:49.864Z,9.10
2018-10-17T10:52:18.977Z,8.90
2018-10-17T10:54:48.001Z,11.53
2018-10-17T10:57:17.473Z,7.10
2018-10-17T10:59:47.413Z,6.15
2018-10-17T11:02:16.839Z,5.58
2018-10-17T11:04:45.909Z,8.63
2018-10-17T11:07:14.953Z,9.43
2018-10-17T11:09:44.635Z,9.23
2018-10-17T11:12:14.951Z,8.75
2018-10-17T11:14:44.300Z,7.40
2018-10-17T11:17:14.214Z,6.70
2018-10-17T11:19:43.241Z,7.12
2018-10-17T11:22:12.418Z,6.40
2018-10-17T11:24:41.542Z,10.15
2018-10-17T11:27:11.127Z,9.43
2018-10-17T11:29:40.217Z,7.40
2018-10-17T11:32:09.367Z,7.37
2018-10-17T11:34:39.994Z,7.17
2018-10-17T11:37:09.149Z,6.80
2018-10-17T11:39:39.302Z,5.95
2018-10-17T11:42:08.396Z,6.37
2018-10-17T11:44:38.221Z,6.78
2018-10-17T11:47:07.282Z,6.22
2018-10-17T11:49:36.529Z,5.47
2018-10-17T11:52:05.997Z,5.97
2018-10-17T11:54:35.000Z,5.67
2018-10-17T11:57:04.158Z,5.87
2018-10-17T11:59:33.327Z,4.65
2018-10-17T12:02:02.367Z,6.80
2018-10-17T12:04:31.648Z,5.20
2018-10-17T12:07:01.333Z,6.33
2018-10-17T12:09:30.386Z,6.05
2018-10-17T12:11:59.643Z,5.95
2018-10-17T12:14:28.631Z,5.70
2018-10-17T12:16:57.794Z,5.75
2018-10-17T12:19:26.882Z,5.75
2018-10-17T12:21:56.003Z,6.40
2018-10-17T12:24:29.251Z,6.95
2018-10-17T12:26:58.506Z,5.58
2018-10-17T12:29:28.454Z,6.78
2018-10-17T12:31:57.736Z,6.78
2018-10-17T12:34:26.869Z,7.00
2018-10-17T12:36:56.536Z,6.17
2018-10-17T12:39:25.695Z,5.97
2018-10-17T12:41:55.109Z,6.55
2018-10-17T12:44:24.282Z,6.50
2018-10-17T12:46:53.740Z,6.97
2018-10-17T12:49:22.819Z,8.90
2018-10-17T12:51:52.062Z,6.45
2018-10-17T12:54:21.256Z,6.47
2018-10-17T12:56:50.438Z,6.75
2018-10-17T12:59:19.809Z,6.67
2018-10-17T13:01:48.979Z,6.20
2018-10-17T13:04:18.078Z,5.83
2018-10-17T13:06:47.216Z,5.03
2018-10-17T13:09:17.167Z,5.55
2018-10-17T13:11:46.373Z,7.15
2018-10-17T13:14:16.184Z,7.15
2018-10-17T13:16:45.248Z,6.90
2018-10-17T13:19:14.441Z,6.33
2018-10-17T13:21:43.391Z,5.85
2018-10-17T13:24:12.612Z,5.30
2018-10-17T13:26:41.660Z,5.28
2018-10-17T13:29:11.113Z,5.40
2018-10-17T13:31:40.514Z,5.00
2018-10-17T13:34:09.787Z,4.67
2018-10-17T13:36:39.166Z,4.72
2018-10-17T13:39:11.082Z,4.28
2018-10-17T13:41:41.152Z,4.60
2018-10-17T13:44:10.767Z,4.40
2018-10-17T13:46:40.245Z,4.40
2018-10-17T13:49:09.500Z,5.62
2018-10-17T13:51:38.642Z,5.33
2018-10-17T13:54:07.818Z,4.65
2018-10-17T13:56:36.856Z,5.20
2018-10-17T13:59:06.560Z,4.20
2018-10-17T14:01:38.634Z,4.55
2018-10-17T14:04:08.400Z,4.62
2018-10-17T14:06:37.615Z,5.60
2018-10-17T14:09:08.121Z,5.00
2018-10-17T14:11:37.468Z,4.35
2018-10-17T14:14:07.442Z,4.80
2018-10-17T14:16:36.659Z,4.85
2018-10-17T14:19:06.341Z,4.65
2018-10-17T14:21:35.679Z,4.73
2018-10-17T14:24:04.969Z,4.37
2018-10-17T14:26:34.011Z,3.70
2018-10-17T14:29:03.217Z,4.40
2018-10-17T14:31:32.334Z,5.03
2018-10-17T14:34:01.781Z,4.80
2018-10-17T14:36:32.122Z,4.80
2018-10-17T14:39:01.411Z,4.90
2018-10-17T14:41:30.800Z,4.75
2018-10-17T14:43:59.939Z,4.95
2018-10-17T14:46:29.215Z,4.30
2018-10-17T14:48:58.298Z,4.20
2018-10-17T14:51:27.452Z,4.55
2018-10-17T14:53:56.621Z,3.80
2018-10-17T14:56:25.823Z,4.00
2018-10-17T14:58:55.842Z,5.40
2018-10-17T15:01:24.899Z,4.30
2018-10-17T15:03:54.937Z,3.97
2018-10-17T15:06:24.066Z,4.43
2018-10-17T15:08:53.619Z,4.53
2018-10-17T15:11:23.119Z,4.20
2018-10-17T15:13:52.257Z,4.00
2018-10-17T15:16:21.556Z,5.33
2018-10-17T15:18:50.794Z,4.25
2018-10-17T15:21:20.636Z,4.90
2018-10-17T15:23:50.019Z,4.77
2018-10-17T15:26:19.212Z,4.70
2018-10-17T15:28:48.340Z,4.30
2018-10-17T15:31:17.505Z,4.10
2018-10-17T15:33:46.607Z,4.17
2018-10-17T15:36:15.832Z,3.77
2018-10-17T15:38:45.072Z,3.50
2018-10-17T15:41:14.160Z,3.93
2018-10-17T15:43:43.391Z,4.00
2018-10-17T15:46:12.658Z,3.47
2018-10-17T15:48:42.877Z,3.77
2018-10-17T15:51:12.204Z,3.93
2018-10-17T15:53:41.741Z,3.80
2018-10-17T15:56:10.975Z,3.90
2018-10-17T15:58:40.294Z,3.87
2018-10-17T16:01:09.765Z,3.97
2018-10-17T16:03:38.896Z,3.70
2018-10-17T16:06:08.431Z,3.50
2018-10-17T16:08:37.603Z,4.10
2018-10-17T16:11:07.348Z,3.80
2018-10-17T16:13:36.612Z,4.00
2018-10-17T16:16:06.013Z,4.03
2018-10-17T16:18:35.138Z,4.70
2018-10-17T16:21:05.298Z,4.90
2018-10-17T16:23:34.602Z,4.90
2018-10-17T16:26:03.966Z,4.20
2018-10-17T16:28:32.926Z,4.60
2018-10-17T16:31:02.246Z,4.83
2018-10-17T16:33:33.421Z,4.50
2018-10-17T16:36:02.575Z,5.00
2018-10-17T16:38:32.219Z,4.53
2018-10-17T16:41:01.463Z,5.27
2018-10-17T16:43:30.619Z,5.00
2018-10-17T16:46:01.054Z,5.40
2018-10-17T16:48:30.256Z,5.93
2018-10-17T16:50:59.378Z,6.03
2018-10-17T16:53:28.474Z,6.57
2018-10-17T16:55:59.075Z,6.10
2018-10-17T16:58:28.244Z,6.17
2018-10-17T17:00:57.378Z,7.13
2018-10-17T17:03:26.545Z,6.97
2018-10-17T17:05:55.885Z,6.97
2018-10-17T17:08:25.862Z,6.10
2018-10-17T17:10:55.119Z,6.23
2018-10-17T17:13:25.558Z,5.77
2018-10-17T17:15:54.687Z,5.73
2018-10-17T17:18:24.320Z,6.03
2018-10-17T17:20:53.334Z,5.00
2018-10-17T17:23:22.460Z,5.40
2018-10-17T17:25:51.576Z,4.97
2018-10-17T17:28:20.589Z,5.73
2018-10-17T17:30:50.288Z,8.00
2018-10-17T17:33:19.560Z,7.60
2018-10-17T17:35:48.837Z,7.67
2018-10-17T17:38:18.478Z,6.13
2018-10-17T17:40:47.619Z,6.10
2018-10-17T17:43:16.750Z,7.20
2018-10-17T17:45:46.229Z,7.60
2018-10-17T17:48:15.431Z,8.10
2018-10-17T17:50:44.617Z,8.30
2018-10-17T17:53:13.787Z,9.40
2018-10-17T17:55:43.176Z,9.83
2018-10-17T17:58:12.245Z,9.60
2018-10-17T18:00:41.384Z,8.13
2018-10-17T18:03:13.786Z,8.40
2018-10-17T18:05:43.099Z,8.80
2018-10-17T18:08:12.260Z,7.80
2018-10-17T18:10:41.469Z,9.37
2018-10-17T18:13:10.765Z,9.00
2018-10-17T18:15:39.968Z,9.00
2018-10-17T18:18:09.132Z,8.30
2018-10-17T18:20:39.017Z,8.60
2018-10-17T18:23:08.274Z,9.70
2018-10-17T18:25:37.744Z,9.57
2018-10-17T18:28:06.991Z,9.20
2018-10-17T18:30:36.013Z,9.40
2018-10-17T18:33:05.289Z,7.77
2018-10-17T18:35:34.424Z,8.23
2018-10-17T18:38:03.543Z,8.30
2018-10-17T18:40:32.786Z,9.67
2018-10-17T18:43:03.210Z,10.83
2018-10-17T18:45:32.514Z,10.17
2018-10-17T18:48:01.743Z,8.70
2018-10-17T18:50:31.114Z,8.03
2018-10-17T18:53:01.394Z,8.37
2018-10-17T18:55:30.578Z,7.93
2018-10-17T18:57:59.707Z,7.20
2018-10-17T19:00:28.804Z,7.23
2018-10-17T19:02:58.114Z,8.80
2018-10-17T19:05:27.094Z,8.17
2018-10-17T19:07:56.391Z,7.80
2018-10-17T19:10:27.566Z,8.37
2018-10-17T19:12:57.668Z,8.27
2018-10-17T19:15:26.793Z,8.73
2018-10-17T19:17:55.935Z,9.37
2018-10-17T19:20:25.868Z,9.70
2018-10-17T19:22:55.755Z,10.00
2018-10-17T19:25:24.943Z,9.87
2018-10-17T19:27:54.012Z,10.00
2018-10-17T19:30:23.248Z,9.07
2018-10-17T19:32:54.980Z,9.63
2018-10-17T19:35:24.201Z,10.67
2018-10-17T19:37:53.386Z,9.67
2018-10-17T19:40:22.488Z,9.83
2018-10-17T19:42:51.609Z,8.63
2018-10-17T19:45:20.764Z,9.30
2018-10-17T19:47:49.947Z,9.80
2018-10-17T19:50:18.965Z,9.17
2018-10-17T19:52:48.361Z,10.17
2018-10-17T19:55:17.468Z,10.37
2018-10-17T19:57:46.712Z,10.80
2018-10-17T20:00:16.541Z,11.90
2018-10-17T20:02:45.623Z,11.37
2018-10-17T20:05:14.836Z,10.33
2018-10-17T20:07:44.433Z,11.83
2018-10-17T20:10:13.454Z,11.17
2018-10-17T20:12:42.626Z,9.57
2018-10-17T20:15:11.755Z,10.57
2018-10-17T20:17:42.879Z,8.37
2018-10-17T20:20:12.850Z,9.00
2018-10-17T20:22:43.128Z,9.80
2018-10-17T20:25:12.227Z,9.53
2018-10-17T20:27:41.988Z,9.93
2018-10-17T20:30:11.136Z,10.77
2018-10-17T20:32:40.476Z,10.37
2018-10-17T20:35:09.708Z,10.33
2018-10-17T20:37:38.739Z,10.63
2018-10-17T20:40:07.984Z,10.50
2018-10-17T20:42:37.039Z,11.60
2018-10-17T20:45:13.673Z,9.77
2018-10-17T20:47:42.903Z,11.30
2018-10-17T20:50:13.977Z,10.30
2018-10-17T20:52:43.007Z,10.43
2018-10-17T20:55:12.059Z,10.40
2018-10-17T20:57:41.244Z,9.57
2018-10-17T21:00:10.270Z,8.67
2018-10-17T21:02:39.344Z,9.13
2018-10-17T21:05:08.321Z,9.70
2018-10-17T21:07:37.933Z,10.03
2018-10-17T21:10:07.449Z,10.37
2018-10-17T21:12:36.583Z,11.67
2018-10-17T21:15:06.692Z,10.60
2018-10-17T21:17:35.745Z,10.87
2018-10-17T21:20:04.808Z,10.30
2018-10-17T21:22:33.744Z,10.33
2018-10-17T21:25:03.523Z,10.37
2018-10-17T21:27:32.409Z,9.90
2018-10-17T21:30:01.410Z,11.70
2018-10-17T21:32:30.409Z,14.30
2018-10-17T21:34:59.777Z,13.47
2018-10-17T21:37:28.950Z,12.13
2018-10-17T21:39:57.913Z,12.30
2018-10-17T21:42:29.140Z,11.90
2018-10-17T21:44:58.392Z,10.23
2018-10-17T21:47:27.856Z,11.20
2018-10-17T21:49:56.940Z,12.30
2018-10-17T21:52:26.019Z,14.53
2018-10-17T21:54:55.014Z,14.43
2018-10-17T21:57:24.055Z,12.60
2018-10-17T21:59:54.134Z,14.47
2018-10-17T22:02:23.208Z,16.40
2018-10-17T22:04:52.262Z,12.83
2018-10-17T22:07:21.364Z,13.03
2018-10-17T22:09:50.554Z,12.30
2018-10-17T22:12:19.742Z,13.87
2018-10-17T22:14:48.698Z,12.80
2018-10-17T22:17:22.745Z,13.10
2018-10-17T22:19:51.800Z,14.73
2018-10-17T22:22:21.626Z,14.30
2018-10-17T22:24:50.729Z,12.87
2018-10-17T22:27:20.505Z,13.13
2018-10-17T22:29:49.585Z,14.23
2018-10-17T22:32:18.686Z,15.23
2018-10-17T22:34:48.120Z,14.00
2018-10-17T22:37:17.266Z,14.73
2018-10-17T22:39:46.386Z,13.83
2018-10-17T22:42:16.220Z,12.60
2018-10-17T22:44:45.235Z,12.10
2018-10-17T22:47:14.219Z,14.20
2018-10-17T22:49:44.855Z,14.10
2018-10-17T22:52:13.890Z,14.50
2018-10-17T22:54:42.989Z,15.13
2018-10-17T22:57:12.125Z,13.97
2018-10-17T22:59:41.291Z,15.23
2018-10-17T23:02:10.477Z,15.10
2018-10-17T23:04:39.711Z,14.80
2018-10-17T23:07:09.009Z,16.57
2018-10-17T23:09:38.188Z,14.30
2018-10-17T23:12:07.231Z,14.33
2018-10-17T23:14:36.343Z,14.73
2018-10-17T23:17:06.193Z,14.73
2018-10-17T23:19:35.199Z,14.10
2018-10-17T23:22:04.706Z,16.27
2018-10-17T23:24:35.016Z,15.50
2018-10-17T23:27:04.223Z,15.73
2018-10-17T23:29:33.283Z,13.70
2018-10-17T23:32:02.528Z,13.60
2018-10-17T23:34:31.524Z,12.67
2018-10-17T23:37:00.661Z,15.00
2018-10-17T23:39:29.802Z,15.73
2018-10-17T23:41:58.895Z,14.60
2018-10-17T23:44:28.420Z,18.00
2018-10-17T23:46:57.525Z,15.37
2018-10-17T23:49:26.630Z,15.77
2018-10-17T23:51:56.301Z,15.63
2018-10-17T23:54:25.372Z,16.40
2018-10-17T23:56:54.406Z,16.07
2018-10-17T23:59:23.652Z,14.83
